Time;durP1;ratioP1;P1;durP2;ratioP2;P2;SDS_P1;SDS_P2;PMS_P1;PMS_P2;Temp;Humidity;BMP_temperature;BMP_pressure;BME280_temperature;BME280_humidity;BME280_pressure;Samples;Min_cycle;Max_cycle;Signal;HPM_P1;HPM_P2
2022/05/29 00:01:14;;;;;;;4.53;1.70;;;;;;;;;;5042291;28;20841;-73
2022/05/29 00:03:40;;;;;;;3.93;2.10;;;;;;;;;;5040521;28;20248;-73
2022/05/29 00:06:06;;;;;;;4.93;1.90;;;;;;;;;;5043191;28;20244;-74
2022/05/29 00:08:34;;;;;;;6.93;1.87;;;;;;;;;;5046598;28;20213;-73
2022/05/29 00:11:01;;;;;;;4.23;1.83;;;;;;;;;;5044911;28;20182;-72
2022/05/29 00:13:27;;;;;;;4.73;2.10;;;;;;;;;;5043952;28;20596;-73
2022/05/29 00:15:54;;;;;;;3.87;2.10;;;;;;;;;;5038497;28;20182;-72
2022/05/29 00:18:20;;;;;;;4.30;2.10;;;;;;;;;;5045007;28;20191;-73
2022/05/29 00:20:49;;;;;;;3.53;2.03;;;;;;;;;;5048666;28;20178;-73
2022/05/29 00:23:15;;;;;;;3.40;1.90;;;;;;;;;;5044211;28;20244;-73
2022/05/29 00:25:43;;;;;;;4.77;1.83;;;;;;;;;;5044824;28;20262;-72
2022/05/29 00:28:09;;;;;;;4.10;2.00;;;;;;;;;;5042878;28;20221;-73
2022/05/29 00:30:36;;;;;;;4.27;2.10;;;;;;;;;;5041244;28;20182;-72
2022/05/29 00:33:02;;;;;;;4.33;2.03;;;;;;;;;;5043008;28;20237;-73
2022/05/29 00:35:29;;;;;;;4.03;2.10;;;;;;;;;;5038059;28;20265;-72
2022/05/29 00:37:55;;;;;;;3.87;1.80;;;;;;;;;;5049345;28;20185;-73
2022/05/29 00:40:21;;;;;;;4.87;2.00;;;;;;;;;;5042177;28;20201;-73
2022/05/29 00:42:47;;;;;;;6.47;2.33;;;;;;;;;;5042983;28;20761;-73
2022/05/29 00:45:17;;;;;;;4.80;1.90;;;;;;;;;;5046622;28;20210;-73
2022/05/29 00:47:43;;;;;;;4.67;1.90;;;;;;;;;;5041935;28;20178;-72
2022/05/29 00:50:10;;;;;;;3.50;1.67;;;;;;;;;;5040512;28;20185;-72
2022/05/29 00:52:36;;;;;;;4.80;1.80;;;;;;;;;;5043285;28;20278;-73
2022/05/29 00:55:05;;;;;;;5.07;1.90;;;;;;;;;;5037949;28;20186;-72
2022/05/29 00:57:40;;;;;;;3.77;1.90;;;;;;;;;;5043172;28;20178;-73
2022/05/29 01:00:12;;;;;;;5.90;2.30;;;;;;;;;;5049239;28;20185;-73
2022/05/29 01:02:38;;;;;;;2.70;1.90;;;;;;;;;;5045626;28;20210;-72
2022/05/29 01:05:06;;;;;;;4.87;1.80;;;;;;;;;;5046609;28;20194;-73
2022/05/29 01:07:32;;;;;;;5.17;2.10;;;;;;;;;;5046630;28;20221;-72
2022/05/29 01:10:00;;;;;;;4.50;1.70;;;;;;;;;;5039165;28;20255;-72
2022/05/29 01:12:31;;;;;;;4.50;1.80;;;;;;;;;;5041664;28;20221;-72
2022/05/29 01:15:16;;;;;;;4.93;2.00;;;;;;;;;;5049601;28;20182;-72
2022/05/29 01:17:45;;;;;;;3.93;1.80;;;;;;;;;;5048170;28;20264;-72
2022/05/29 01:20:29;;;;;;;3.67;1.77;;;;;;;;;;5034913;28;20182;-72
2022/05/29 01:23:16;;;;;;;3.93;1.90;;;;;;;;;;5033323;28;20288;-72
2022/05/29 01:25:53;;;;;;;4.47;1.80;;;;;;;;;;5040967;28;20269;-72
2022/05/29 01:28:38;;;;;;;4.97;1.80;;;;;;;;;;5037663;28;20209;-73
2022/05/29 01:31:07;;;;;;;4.57;1.90;;;;;;;;;;5042440;28;20186;-73
2022/05/29 01:33:53;;;;;;;5.83;2.43;;;;;;;;;;5031932;28;20225;-72
2022/05/29 01:36:31;;;;;;;3.77;1.93;;;;;;;;;;5042563;28;20190;-72
2022/05/29 01:39:02;;;;;;;3.27;1.90;;;;;;;;;;5045141;28;20657;-72
2022/05/29 01:41:33;;;;;;;3.87;1.80;;;;;;;;;;5047793;28;20216;-72
2022/05/29 01:44:18;;;;;;;6.50;1.90;;;;;;;;;;5044922;28;20214;-72
2022/05/29 01:46:46;;;;;;;6.33;2.33;;;;;;;;;;5037927;28;20767;-72
2022/05/29 01:49:29;;;;;;;8.20;2.03;;;;;;;;;;5043382;28;20189;-72
2022/05/29 01:52:14;;;;;;;9.37;2.33;;;;;;;;;;5044111;28;20205;-73
2022/05/29 01:54:42;;;;;;;6.97;1.97;;;;;;;;;;5042566;28;20248;-72
2022/05/29 01:57:10;;;;;;;5.97;2.43;;;;;;;;;;5044705;28;20190;-72
2022/05/29 01:59:47;;;;;;;5.73;2.10;;;;;;;;;;5039361;28;20186;-72
2022/05/29 02:02:15;;;;;;;5.57;2.20;;;;;;;;;;5043279;28;20576;-72
2022/05/29 02:04:45;;;;;;;3.60;2.03;;;;;;;;;;5040184;28;20181;-72
2022/05/29 02:10:07;;;;;;;5.83;2.50;;;;;;;;;;5035914;28;20245;-73
2022/05/29 02:12:34;;;;;;;6.80;2.20;;;;;;;;;;5043235;28;20220;-72
2022/05/29 02:15:07;;;;;;;3.30;1.90;;;;;;;;;;5042890;28;20268;-72
2022/05/29 02:17:46;;;;;;;6.30;2.20;;;;;;;;;;5041856;28;20261;-72
2022/05/29 02:20:30;;;;;;;6.37;2.37;;;;;;;;;;5044611;28;20653;-73
2022/05/29 02:23:03;;;;;;;5.93;2.00;;;;;;;;;;5036726;28;20222;-73
2022/05/29 02:25:31;;;;;;;6.67;2.37;;;;;;;;;;5037083;28;20193;-73
2022/05/29 02:28:10;;;;;;;5.37;2.10;;;;;;;;;;5037222;28;20190;-72
2022/05/29 02:30:39;;;;;;;6.57;2.17;;;;;;;;;;5037122;28;20186;-72
2022/05/29 02:33:13;;;;;;;5.57;2.27;;;;;;;;;;5047752;28;20213;-72
2022/05/29 02:35:42;;;;;;;4.87;2.20;;;;;;;;;;5041925;28;20191;-73
2022/05/29 02:38:14;;;;;;;7.87;2.40;;;;;;;;;;5043460;28;20178;-72
2022/05/29 02:40:40;;;;;;;4.00;2.13;;;;;;;;;;5035969;28;20228;-72
2022/05/29 02:43:09;;;;;;;5.00;2.10;;;;;;;;;;5031726;28;20241;-72
2022/05/29 02:45:57;;;;;;;5.30;2.17;;;;;;;;;;5032135;28;20194;-72
2022/05/29 02:48:40;;;;;;;7.77;1.97;;;;;;;;;;5036615;28;20258;-72
2022/05/29 02:51:14;;;;;;;4.53;2.20;;;;;;;;;;5044103;28;20199;-73
2022/05/29 02:53:44;;;;;;;7.17;2.43;;;;;;;;;;5041131;28;20208;-72
2022/05/29 02:56:11;;;;;;;6.43;2.37;;;;;;;;;;5037636;28;20642;-73
2022/05/29 02:58:39;;;;;;;4.87;2.03;;;;;;;;;;5038345;28;20257;-72
2022/05/29 03:01:12;;;;;;;7.37;2.20;;;;;;;;;;5039184;28;20637;-72
2022/05/29 03:03:52;;;;;;;6.97;2.50;;;;;;;;;;5040259;28;20205;-72
2022/05/29 03:06:37;;;;;;;5.03;2.10;;;;;;;;;;5040506;28;20204;-72
2022/05/29 03:09:13;;;;;;;6.20;2.17;;;;;;;;;;5042990;28;20187;-72
2022/05/29 03:11:40;;;;;;;6.67;2.20;;;;;;;;;;5044950;28;20268;-73
2022/05/29 03:14:10;;;;;;;5.43;2.50;;;;;;;;;;5038130;28;20214;-72
2022/05/29 03:16:37;;;;;;;8.17;2.40;;;;;;;;;;5042030;28;20208;-72
2022/05/29 03:19:09;;;;;;;6.70;2.40;;;;;;;;;;5038687;28;20179;-73
2022/05/29 03:21:58;;;;;;;7.27;2.60;;;;;;;;;;5043021;28;20193;-72
2022/05/29 03:24:28;;;;;;;9.17;2.50;;;;;;;;;;5043751;28;20186;-72
2022/05/29 03:26:54;;;;;;;5.43;2.40;;;;;;;;;;5038306;28;20290;-72
2022/05/29 03:29:33;;;;;;;5.13;2.10;;;;;;;;;;5034562;28;20277;-72
2022/05/29 03:31:59;;;;;;;9.67;2.60;;;;;;;;;;5031758;28;20256;-72
2022/05/29 03:34:25;;;;;;;6.33;2.03;;;;;;;;;;5044814;28;20317;-73
2022/05/29 03:36:52;;;;;;;6.83;1.90;;;;;;;;;;5043059;28;20178;-73
2022/05/29 03:39:18;;;;;;;6.20;2.30;;;;;;;;;;5036844;28;20664;-72
2022/05/29 03:41:45;;;;;;;6.53;2.13;;;;;;;;;;5040806;28;20236;-72
2022/05/29 03:44:12;;;;;;;6.40;2.30;;;;;;;;;;5043948;28;20264;-72
2022/05/29 03:46:43;;;;;;;4.63;2.10;;;;;;;;;;5033361;28;20190;-72
2022/05/29 03:49:09;;;;;;;6.83;2.00;;;;;;;;;;5030722;28;20265;-72
2022/05/29 03:51:36;;;;;;;7.40;2.20;;;;;;;;;;5031598;28;20877;-72
2022/05/29 03:54:03;;;;;;;5.73;2.10;;;;;;;;;;5045473;28;20288;-72
2022/05/29 03:56:29;;;;;;;6.23;2.20;;;;;;;;;;5032338;28;20193;-72
2022/05/29 03:58:56;;;;;;;8.13;2.43;;;;;;;;;;5046195;28;20693;-72
2022/05/29 04:01:22;;;;;;;7.73;2.47;;;;;;;;;;5036807;28;20272;-73
2022/05/29 04:03:49;;;;;;;8.80;2.73;;;;;;;;;;5043135;28;20216;-73
2022/05/29 04:06:16;;;;;;;6.83;2.40;;;;;;;;;;5042244;28;20182;-72
2022/05/29 04:14:21;;;;;;;5.73;2.43;;;;;;;;;;5034658;28;20210;-72
2022/05/29 04:16:48;;;;;;;10.00;2.70;;;;;;;;;;5039799;28;20201;-71
2022/05/29 04:19:15;;;;;;;6.17;2.50;;;;;;;;;;5043655;28;20186;-72
2022/05/29 04:21:41;;;;;;;6.37;2.37;;;;;;;;;;5041364;28;20177;-72
2022/05/29 04:24:07;;;;;;;8.37;2.37;;;;;;;;;;5049957;28;20197;-71
2022/05/29 04:26:36;;;;;;;7.60;2.40;;;;;;;;;;5041069;28;20699;-71
2022/05/29 04:29:03;;;;;;;6.83;2.47;;;;;;;;;;5043622;28;20272;-71
2022/05/29 04:31:30;;;;;;;5.70;2.10;;;;;;;;;;5043954;28;20194;-72
2022/05/29 04:33:56;;;;;;;6.17;2.10;;;;;;;;;;5039241;28;20252;-72
2022/05/29 04:36:24;;;;;;;4.73;2.00;;;;;;;;;;5043134;28;20380;-72
2022/05/29 04:38:50;;;;;;;6.63;2.30;;;;;;;;;;5044059;28;20201;-72
2022/05/29 04:41:17;;;;;;;6.20;2.30;;;;;;;;;;5049198;28;20181;-72
2022/05/29 04:43:43;;;;;;;7.23;2.13;;;;;;;;;;5042779;28;20206;-72
2022/05/29 04:46:09;;;;;;;5.50;2.13;;;;;;;;;;5046599;28;20185;-72
2022/05/29 04:48:35;;;;;;;8.50;2.30;;;;;;;;;;5048960;28;20604;-72
2022/05/29 04:51:06;;;;;;;5.77;2.37;;;;;;;;;;5047262;28;20193;-72
2022/05/29 04:53:32;;;;;;;5.57;2.10;;;;;;;;;;5053490;28;20591;-71
2022/05/29 04:55:59;;;;;;;8.30;2.50;;;;;;;;;;5045302;28;20189;-72
2022/05/29 04:58:26;;;;;;;9.37;2.60;;;;;;;;;;5044537;28;20178;-72
2022/05/29 05:01:00;;;;;;;7.17;2.37;;;;;;;;;;5041484;28;20178;-72
2022/05/29 05:03:27;;;;;;;6.40;2.40;;;;;;;;;;5045384;28;20209;-72
2022/05/29 05:05:53;;;;;;;6.37;2.20;;;;;;;;;;5042423;28;20200;-72
2022/05/29 05:08:19;;;;;;;4.90;2.00;;;;;;;;;;5043224;28;20225;-72
2022/05/29 05:10:46;;;;;;;5.93;2.20;;;;;;;;;;5045625;28;20198;-72
2022/05/29 05:13:12;;;;;;;4.07;2.07;;;;;;;;;;5040112;28;20210;-71
2022/05/29 05:15:39;;;;;;;5.13;2.33;;;;;;;;;;5040910;28;20295;-71
2022/05/29 05:18:05;;;;;;;5.17;2.40;;;;;;;;;;5041920;28;20224;-72
2022/05/29 05:20:33;;;;;;;7.17;2.50;;;;;;;;;;5042025;28;20182;-72
2022/05/29 05:23:00;;;;;;;7.03;2.20;;;;;;;;;;5043780;28;20264;-71
2022/05/29 05:25:26;;;;;;;6.17;2.10;;;;;;;;;;5041555;28;20201;-71
2022/05/29 05:27:53;;;;;;;8.97;2.70;;;;;;;;;;5049608;28;20645;-71
2022/05/29 05:30:20;;;;;;;7.03;2.30;;;;;;;;;;5038159;28;20277;-72
2022/05/29 05:32:46;;;;;;;5.90;2.33;;;;;;;;;;5038561;28;20214;-71
2022/05/29 05:35:18;;;;;;;5.63;2.33;;;;;;;;;;5039442;28;20193;-72
2022/05/29 05:37:45;;;;;;;6.73;2.57;;;;;;;;;;5047452;28;20662;-71
2022/05/29 05:40:13;;;;;;;7.90;2.30;;;;;;;;;;5041931;28;20189;-71
2022/05/29 05:42:40;;;;;;;11.27;2.63;;;;;;;;;;5038898;28;20640;-71
2022/05/29 05:45:07;;;;;;;5.60;2.00;;;;;;;;;;5044920;28;20190;-72
2022/05/29 05:47:34;;;;;;;6.23;2.30;;;;;;;;;;5043458;28;20189;-71
2022/05/29 05:50:04;;;;;;;6.07;2.27;;;;;;;;;;5047014;28;20579;-72
2022/05/29 05:52:30;;;;;;;6.67;2.00;;;;;;;;;;5040461;28;20202;-72
2022/05/29 05:54:59;;;;;;;6.10;2.30;;;;;;;;;;5036326;28;20196;-72
2022/05/29 05:57:25;;;;;;;6.90;2.07;;;;;;;;;;5043818;28;20662;-71
2022/05/29 05:59:51;;;;;;;7.10;1.90;;;;;;;;;;5044965;28;20174;-72
2022/05/29 06:02:18;;;;;;;6.37;2.00;;;;;;;;;;5041210;28;20551;-71
2022/05/29 06:04:44;;;;;;;5.40;1.80;;;;;;;;;;5041763;28;20178;-71
2022/05/29 06:07:10;;;;;;;5.23;1.80;;;;;;;;;;5041364;28;20189;-71
2022/05/29 06:09:37;;;;;;;5.53;1.90;;;;;;;;;;5043948;28;20194;-71
2022/05/29 06:12:04;;;;;;;5.00;2.17;;;;;;;;;;5041119;28;20213;-71
2022/05/29 06:14:33;;;;;;;5.73;2.10;;;;;;;;;;5043157;28;20206;-71
2022/05/29 06:16:59;;;;;;;4.20;2.17;;;;;;;;;;5041362;28;20188;-71
2022/05/29 06:19:25;;;;;;;4.23;2.00;;;;;;;;;;5041861;28;20178;-71
2022/05/29 06:21:51;;;;;;;5.33;2.10;;;;;;;;;;5039227;28;20197;-71
2022/05/29 06:24:17;;;;;;;5.07;1.83;;;;;;;;;;5040929;28;20194;-72
2022/05/29 06:26:47;;;;;;;5.93;1.97;;;;;;;;;;5041996;28;20186;-71
2022/05/29 06:29:13;;;;;;;3.07;1.80;;;;;;;;;;5036209;28;20192;-72
2022/05/29 06:31:40;;;;;;;2.80;1.83;;;;;;;;;;5038511;28;20237;-72
2022/05/29 06:34:06;;;;;;;4.00;1.90;;;;;;;;;;5035085;28;20210;-72
2022/05/29 06:36:32;;;;;;;5.27;2.03;;;;;;;;;;5038635;28;20175;-72
2022/05/29 06:38:59;;;;;;;3.37;1.90;;;;;;;;;;5040927;28;20261;-71
2022/05/29 06:41:26;;;;;;;4.47;1.90;;;;;;;;;;5040758;28;20270;-71
2022/05/29 06:43:52;;;;;;;5.27;2.03;;;;;;;;;;5037886;28;20229;-71
2022/05/29 06:46:19;;;;;;;4.80;1.80;;;;;;;;;;5041729;28;20182;-72
2022/05/29 06:48:45;;;;;;;5.80;1.80;;;;;;;;;;5046445;28;20193;-71
2022/05/29 06:51:13;;;;;;;4.40;1.83;;;;;;;;;;5041952;28;20190;-71
2022/05/29 06:53:40;;;;;;;5.27;1.80;;;;;;;;;;5049121;28;20217;-71
2022/05/29 06:56:07;;;;;;;5.47;2.07;;;;;;;;;;5044472;28;20228;-72
2022/05/29 06:58:33;;;;;;;5.70;2.33;;;;;;;;;;5046783;28;20193;-71
2022/05/29 07:07:00;;;;;;;4.00;2.00;;;;;;;;;;5044041;28;20559;-71
2022/05/29 07:09:39;;;;;;;5.10;2.10;;;;;;;;;;5039498;28;20193;-72
2022/05/29 07:12:08;;;;;;;7.67;2.30;;;;;;;;;;5039722;28;20224;-71
2022/05/29 07:14:55;;;;;;;8.37;2.43;;;;;;;;;;5042928;28;20217;-72
2022/05/29 07:17:23;;;;;;;6.83;2.47;;;;;;;;;;5046285;28;20316;-73
2022/05/29 07:19:49;;;;;;;7.67;2.10;;;;;;;;;;5043559;28;20201;-72
2022/05/29 07:22:15;;;;;;;5.33;2.07;;;;;;;;;;5048779;28;20673;-75
2022/05/29 07:24:43;;;;;;;7.23;2.00;;;;;;;;;;5048703;28;20206;-74
2022/05/29 07:27:10;;;;;;;5.10;2.03;;;;;;;;;;5045972;28;20185;-74
2022/05/29 07:29:36;;;;;;;5.40;2.20;;;;;;;;;;5041601;28;20190;-74
2022/05/29 07:32:03;;;;;;;6.17;2.13;;;;;;;;;;5038918;28;20206;-74
2022/05/29 07:34:30;;;;;;;6.90;2.00;;;;;;;;;;5045072;28;20229;-74
2022/05/29 07:37:03;;;;;;;6.70;2.10;;;;;;;;;;5039832;28;20185;-76
2022/05/29 07:39:34;;;;;;;9.20;2.20;;;;;;;;;;5052289;28;20740;-73
2022/05/29 07:44:45;;;;;;;10.43;2.47;;;;;;;;;;5045413;28;20645;-75
2022/05/29 07:47:11;;;;;;;5.80;1.80;;;;;;;;;;5032571;28;21130;-74
2022/05/29 07:49:40;;;;;;;5.73;1.80;;;;;;;;;;5037558;28;20587;-74
2022/05/29 07:52:07;;;;;;;8.93;2.20;;;;;;;;;;5052328;28;20212;-71
2022/05/29 07:54:33;;;;;;;4.33;1.73;;;;;;;;;;5051566;28;20206;-72
2022/05/29 07:56:59;;;;;;;6.70;2.03;;;;;;;;;;5041340;28;20660;-71
2022/05/29 07:59:26;;;;;;;5.77;2.10;;;;;;;;;;5049911;28;20190;-73
2022/05/29 08:01:52;;;;;;;5.13;2.00;;;;;;;;;;5046521;28;20210;-73
2022/05/29 08:04:18;;;;;;;5.40;1.77;;;;;;;;;;5042320;28;20187;-71
2022/05/29 08:06:44;;;;;;;5.87;1.80;;;;;;;;;;5047095;28;20213;-72
2022/05/29 08:09:10;;;;;;;3.83;1.70;;;;;;;;;;5044286;28;20221;-72
2022/05/29 08:11:37;;;;;;;4.80;2.00;;;;;;;;;;5038894;28;20182;-73
2022/05/29 08:14:04;;;;;;;6.63;2.27;;;;;;;;;;5036273;28;20221;-71
2022/05/29 08:16:30;;;;;;;4.77;2.10;;;;;;;;;;5037091;28;20194;-72
2022/05/29 08:18:56;;;;;;;4.37;1.80;;;;;;;;;;5042262;28;20232;-72
2022/05/29 08:21:22;;;;;;;4.60;1.90;;;;;;;;;;5046179;28;20236;-72
2022/05/29 08:32:03;;;;;;;4.57;2.13;;;;;;;;;;5049504;28;20217;-74
2022/05/29 08:34:30;;;;;;;8.17;2.73;;;;;;;;;;5041636;28;20210;-73
2022/05/29 08:36:56;;;;;;;5.43;1.80;;;;;;;;;;5045310;28;20181;-74
2022/05/29 08:39:23;;;;;;;4.20;1.80;;;;;;;;;;5044029;28;22044;-74
2022/05/29 08:41:52;;;;;;;7.57;2.07;;;;;;;;;;5042849;28;20181;-73
2022/05/29 08:44:22;;;;;;;10.90;2.30;;;;;;;;;;5045705;28;20185;-72
2022/05/29 08:46:52;;;;;;;4.33;1.90;;;;;;;;;;5045380;28;20185;-73
2022/05/29 08:49:21;;;;;;;3.43;1.67;;;;;;;;;;5045170;28;20193;-73
2022/05/29 08:51:55;;;;;;;7.43;1.90;;;;;;;;;;5047028;28;20244;-73
2022/05/29 08:54:27;;;;;;;4.00;1.67;;;;;;;;;;5048313;28;20208;-73
2022/05/29 08:57:06;;;;;;;5.17;1.70;;;;;;;;;;5048048;28;20169;-73
2022/05/29 08:59:38;;;;;;;5.10;2.07;;;;;;;;;;5043837;28;20642;-74
2022/05/29 09:02:13;;;;;;;5.37;2.03;;;;;;;;;;5050435;28;20208;-73
2022/05/29 09:04:45;;;;;;;6.03;1.90;;;;;;;;;;5050755;28;20177;-73
2022/05/29 09:07:14;;;;;;;5.13;1.70;;;;;;;;;;5050848;28;20660;-73
2022/05/29 09:09:50;;;;;;;5.80;1.70;;;;;;;;;;5047908;28;20181;-73
2022/05/29 09:12:39;;;;;;;4.43;2.13;;;;;;;;;;5047958;28;20229;-73
2022/05/29 09:15:08;;;;;;;6.33;2.00;;;;;;;;;;5044521;28;20197;-74
2022/05/29 09:17:53;;;;;;;6.30;1.97;;;;;;;;;;5047822;28;20323;-73
2022/05/29 09:20:22;;;;;;;7.07;2.10;;;;;;;;;;5046384;28;20178;-73
2022/05/29 09:22:49;;;;;;;4.90;1.70;;;;;;;;;;5048975;28;20703;-73
2022/05/29 09:25:29;;;;;;;4.40;1.73;;;;;;;;;;5049735;28;20384;-72
2022/05/29 09:27:58;;;;;;;8.30;2.00;;;;;;;;;;5046682;28;20189;-74
2022/05/29 09:30:24;;;;;;;4.30;1.50;;;;;;;;;;5048413;28;20190;-73
2022/05/29 09:33:02;;;;;;;5.77;2.10;;;;;;;;;;5049305;28;20224;-73
2022/05/29 09:35:37;;;;;;;3.63;1.50;;;;;;;;;;5049140;28;20261;-73
2022/05/29 09:38:29;;;;;;;4.57;1.70;;;;;;;;;;5050764;28;20189;-73
2022/05/29 09:40:58;;;;;;;5.63;1.70;;;;;;;;;;5032056;28;20197;-73
2022/05/29 09:43:27;;;;;;;4.43;2.00;;;;;;;;;;5042637;28;20206;-74
2022/05/29 09:46:20;;;;;;;5.10;1.90;;;;;;;;;;5031210;28;20189;-73
2022/05/29 09:51:43;;;;;;;5.47;1.80;;;;;;;;;;5048502;28;20222;-74
2022/05/29 09:54:11;;;;;;;6.57;1.87;;;;;;;;;;5049208;28;20223;-74
2022/05/29 09:56:37;;;;;;;3.93;1.67;;;;;;;;;;5045685;28;20188;-73
2022/05/29 09:59:17;;;;;;;4.73;1.90;;;;;;;;;;5043987;28;20182;-76
2022/05/29 10:01:46;;;;;;;3.20;1.70;;;;;;;;;;5045092;28;20186;-74
2022/05/29 10:04:23;;;;;;;4.20;1.60;;;;;;;;;;5045812;28;20174;-73
2022/05/29 10:06:57;;;;;;;4.43;1.57;;;;;;;;;;5047264;28;20189;-74
2022/05/29 10:09:25;;;;;;;5.17;1.63;;;;;;;;;;5043548;28;20193;-73
2022/05/29 10:11:58;;;;;;;5.03;1.70;;;;;;;;;;5046497;28;20193;-75
2022/05/29 10:14:43;;;;;;;3.60;1.50;;;;;;;;;;5045046;28;20236;-74
2022/05/29 10:17:15;;;;;;;3.37;1.43;;;;;;;;;;5043382;28;20185;-73
2022/05/29 10:19:45;;;;;;;4.90;1.70;;;;;;;;;;5045561;28;20181;-74
2022/05/29 10:22:14;;;;;;;3.57;1.40;;;;;;;;;;5048293;28;20201;-73
2022/05/29 10:24:41;;;;;;;3.40;1.50;;;;;;;;;;5047592;28;20267;-74
2022/05/29 10:27:12;;;;;;;4.47;1.50;;;;;;;;;;5046021;28;21663;-71
2022/05/29 10:29:38;;;;;;;4.97;1.77;;;;;;;;;;5045529;28;20198;-71
2022/05/29 10:32:06;;;;;;;3.90;1.43;;;;;;;;;;5046400;28;20351;-73
2022/05/29 10:34:40;;;;;;;3.73;1.53;;;;;;;;;;5046333;28;20297;-71
2022/05/29 10:37:29;;;;;;;4.10;1.63;;;;;;;;;;5048254;28;21309;-71
2022/05/29 10:40:12;;;;;;;2.60;1.30;;;;;;;;;;5047015;28;20205;-72
2022/05/29 10:42:40;;;;;;;4.17;1.30;;;;;;;;;;5046358;28;20217;-71
2022/05/29 10:45:06;;;;;;;3.63;1.43;;;;;;;;;;5039402;28;20611;-74
2022/05/29 10:47:41;;;;;;;3.03;1.30;;;;;;;;;;5042081;28;20274;-72
2022/05/29 10:50:20;;;;;;;2.60;1.13;;;;;;;;;;5046702;28;20181;-73
2022/05/29 10:53:02;;;;;;;2.83;1.50;;;;;;;;;;5042736;28;20621;-76
2022/05/29 10:55:35;;;;;;;3.87;1.30;;;;;;;;;;5044573;28;20189;-75
2022/05/29 10:58:19;;;;;;;3.17;1.40;;;;;;;;;;5048899;28;20205;-75
2022/05/29 11:00:46;;;;;;;6.37;1.60;;;;;;;;;;5043547;28;20210;-76
2022/05/29 11:03:33;;;;;;;2.97;1.40;;;;;;;;;;5046809;28;20215;-74
2022/05/29 11:06:18;;;;;;;4.07;1.37;;;;;;;;;;5044549;28;20178;-74
2022/05/29 11:08:53;;;;;;;2.90;1.50;;;;;;;;;;5039602;28;20182;-74
2022/05/29 11:11:38;;;;;;;3.77;1.40;;;;;;;;;;5041336;28;20594;-74
2022/05/29 11:14:17;;;;;;;4.30;1.60;;;;;;;;;;5039903;28;20274;-74
2022/05/29 11:16:55;;;;;;;3.77;1.37;;;;;;;;;;5041335;28;20209;-74
2022/05/29 11:19:41;;;;;;;3.53;1.50;;;;;;;;;;5043934;28;20182;-74
2022/05/29 11:22:31;;;;;;;4.90;2.30;;;;;;;;;;5036936;28;20198;-73
2022/05/29 11:25:06;;;;;;;2.77;1.67;;;;;;;;;;5047748;28;20264;-75
2022/05/29 11:27:35;;;;;;;4.30;1.80;;;;;;;;;;5040962;28;20244;-73
2022/05/29 11:30:04;;;;;;;4.27;1.70;;;;;;;;;;5044939;28;20611;-73
2022/05/29 11:32:33;;;;;;;3.37;1.40;;;;;;;;;;5042715;28;20217;-74
2022/05/29 11:35:19;;;;;;;3.47;1.37;;;;;;;;;;5046735;28;20211;-74
2022/05/29 11:37:52;;;;;;;3.23;1.20;;;;;;;;;;5048578;28;20548;-76
2022/05/29 11:40:26;;;;;;;2.17;1.20;;;;;;;;;;5043714;28;20238;-73
2022/05/29 11:42:57;;;;;;;3.27;1.50;;;;;;;;;;5042545;28;20198;-75
2022/05/29 11:51:07;;;;;;;1.80;1.10;;;;;;;;;;5038591;28;20179;-74
2022/05/29 11:51:11;;;;;;;4.10;1.30;;;;;;;;;;5045215;28;20185;-75
2022/05/29 11:53:41;;;;;;;3.17;1.20;;;;;;;;;;5043839;28;20584;-75
2022/05/29 11:56:10;;;;;;;2.07;1.10;;;;;;;;;;5051389;28;20231;-76
2022/05/29 11:58:39;;;;;;;2.70;1.10;;;;;;;;;;5049262;28;20250;-76
2022/05/29 12:01:10;;;;;;;3.80;1.13;;;;;;;;;;5040505;28;20217;-75
2022/05/29 12:03:43;;;;;;;2.60;1.20;;;;;;;;;;5037700;28;20213;-80
2022/05/29 12:06:16;;;;;;;3.17;1.37;;;;;;;;;;5044689;28;20186;-74
2022/05/29 12:08:48;;;;;;;2.77;1.47;;;;;;;;;;5043480;28;20182;-74
2022/05/29 12:11:33;;;;;;;2.53;1.13;;;;;;;;;;5047278;28;20190;-75
2022/05/29 12:14:06;;;;;;;2.70;1.30;;;;;;;;;;5045308;28;20217;-75
2022/05/29 12:16:33;;;;;;;2.77;1.20;;;;;;;;;;5042158;28;20293;-75
2022/05/29 12:19:01;;;;;;;2.97;1.27;;;;;;;;;;5045738;28;20188;-75
2022/05/29 12:21:43;;;;;;;1.90;1.10;;;;;;;;;;5042713;28;20647;-75
2022/05/29 12:24:12;;;;;;;2.60;1.10;;;;;;;;;;5043410;28;20198;-74
2022/05/29 12:26:55;;;;;;;2.23;1.20;;;;;;;;;;5048532;28;20190;-74
2022/05/29 12:29:28;;;;;;;1.90;1.00;;;;;;;;;;5048261;28;20279;-75
2022/05/29 12:31:57;;;;;;;1.87;1.13;;;;;;;;;;5040730;28;20191;-75
2022/05/29 12:34:32;;;;;;;2.93;1.30;;;;;;;;;;5040618;28;20241;-75
2022/05/29 12:36:58;;;;;;;2.37;1.30;;;;;;;;;;5043090;28;20236;-75
2022/05/29 12:39:34;;;;;;;2.27;1.20;;;;;;;;;;5038526;28;20186;-75
2022/05/29 12:42:16;;;;;;;1.40;1.10;;;;;;;;;;5039796;28;20261;-74
2022/05/29 12:44:48;;;;;;;4.23;1.23;;;;;;;;;;5052957;28;20582;-75
2022/05/29 12:47:23;;;;;;;1.93;1.20;;;;;;;;;;5047463;28;20195;-77
2022/05/29 12:49:49;;;;;;;2.50;1.00;;;;;;;;;;5036256;28;20205;-75
2022/05/29 12:52:17;;;;;;;4.37;1.30;;;;;;;;;;5046946;28;20677;-76
2022/05/29 12:55:02;;;;;;;2.90;1.07;;;;;;;;;;5042239;28;20230;-75
2022/05/29 12:57:47;;;;;;;2.73;1.10;;;;;;;;;;5046555;28;20178;-75
2022/05/29 13:00:27;;;;;;;3.03;1.17;;;;;;;;;;5047833;28;20185;-75
2022/05/29 13:03:21;;;;;;;2.73;1.20;;;;;;;;;;5040771;28;20203;-75
2022/05/29 13:05:47;;;;;;;1.30;1.00;;;;;;;;;;5047998;28;20619;-75
2022/05/29 13:08:19;;;;;;;2.87;1.10;;;;;;;;;;5043832;28;20500;-75
2022/05/29 13:10:48;;;;;;;2.20;1.10;;;;;;;;;;5038137;28;20216;-75
2022/05/29 13:13:20;;;;;;;1.87;1.10;;;;;;;;;;5049341;28;20650;-75
2022/05/29 13:15:47;;;;;;;2.43;1.20;;;;;;;;;;5042014;28;20185;-75
2022/05/29 13:18:27;;;;;;;1.00;0.90;;;;;;;;;;5043772;28;20196;-76
2022/05/29 13:21:03;;;;;;;1.80;1.00;;;;;;;;;;5038954;28;20186;-76
2022/05/29 13:23:31;;;;;;;3.23;1.40;;;;;;;;;;5036930;28;21053;-75
2022/05/29 13:25:57;;;;;;;1.60;1.00;;;;;;;;;;5040741;28;20203;-75
2022/05/29 13:28:43;;;;;;;2.07;1.20;;;;;;;;;;5035319;28;20226;-75
2022/05/29 13:31:14;;;;;;;2.23;1.10;;;;;;;;;;5038689;28;20190;-74
2022/05/29 13:33:43;;;;;;;1.47;1.00;;;;;;;;;;5037613;28;20747;-75
2022/05/29 13:36:10;;;;;;;2.13;1.20;;;;;;;;;;5038710;28;20193;-74
2022/05/29 13:38:45;;;;;;;1.90;1.13;;;;;;;;;;5035814;28;20716;-74
2022/05/29 13:41:31;;;;;;;3.57;1.30;;;;;;;;;;5045640;28;20178;-73
2022/05/29 13:44:18;;;;;;;2.07;1.30;;;;;;;;;;5038351;28;20301;-73
2022/05/29 13:46:44;;;;;;;1.50;1.20;;;;;;;;;;5042512;28;20205;-73
2022/05/29 13:49:13;;;;;;;1.90;1.10;;;;;;;;;;5040737;28;20289;-73
2022/05/29 13:51:44;;;;;;;1.97;1.23;;;;;;;;;;5046689;28;20276;-73
2022/05/29 13:54:20;;;;;;;2.23;1.20;;;;;;;;;;5042307;28;20209;-74
2022/05/29 13:56:52;;;;;;;2.27;1.17;;;;;;;;;;5041193;28;20179;-74
2022/05/29 14:05:20;;;;;;;2.40;1.10;;;;;;;;;;5046427;28;20188;-73
2022/05/29 14:08:06;;;;;;;1.50;1.00;;;;;;;;;;5037713;28;20640;-73
2022/05/29 14:10:47;;;;;;;2.33;1.00;;;;;;;;;;5043846;28;20558;-73
2022/05/29 14:13:26;;;;;;;1.80;0.90;;;;;;;;;;5048789;28;20222;-76
2022/05/29 14:15:54;;;;;;;1.80;1.27;;;;;;;;;;5042793;28;20274;-73
2022/05/29 14:18:26;;;;;;;2.60;1.30;;;;;;;;;;5038157;28;20186;-72
2022/05/29 14:21:04;;;;;;;2.80;1.27;;;;;;;;;;5046803;28;20181;-72
2022/05/29 14:23:49;;;;;;;2.67;1.20;;;;;;;;;;5039636;28;20236;-73
2022/05/29 14:26:44;;;;;;;2.00;1.20;;;;;;;;;;5043782;28;20216;-72
2022/05/29 14:29:10;;;;;;;1.37;1.00;;;;;;;;;;5038973;28;20715;-73
2022/05/29 14:31:45;;;;;;;1.47;1.00;;;;;;;;;;5042926;28;20340;-73
2022/05/29 14:34:31;;;;;;;1.67;1.10;;;;;;;;;;5034780;28;20725;-73
2022/05/29 14:37:20;;;;;;;1.53;1.10;;;;;;;;;;5045878;28;20179;-74
2022/05/29 14:39:52;;;;;;;2.50;1.33;;;;;;;;;;5041482;28;20202;-73
2022/05/29 14:42:18;;;;;;;2.13;1.20;;;;;;;;;;5039524;28;20301;-72
2022/05/29 14:44:46;;;;;;;1.60;1.33;;;;;;;;;;5036535;28;20911;-74
2022/05/29 14:47:23;;;;;;;2.13;1.20;;;;;;;;;;5035641;28;20197;-73
2022/05/29 14:49:56;;;;;;;4.23;1.10;;;;;;;;;;5035750;28;20184;-72
2022/05/29 14:52:25;;;;;;;3.07;1.23;;;;;;;;;;5036410;28;20206;-72
2022/05/29 14:54:56;;;;;;;1.63;1.00;;;;;;;;;;5037110;28;20293;-72
2022/05/29 14:57:26;;;;;;;1.67;1.10;;;;;;;;;;5040781;28;20185;-73
2022/05/29 14:59:54;;;;;;;2.03;1.10;;;;;;;;;;5035108;28;20194;-72
2022/05/29 15:02:20;;;;;;;2.10;1.20;;;;;;;;;;5037298;28;20209;-72
2022/05/29 15:04:47;;;;;;;1.37;1.10;;;;;;;;;;5041061;28;20182;-72
2022/05/29 15:12:45;;;;;;;2.60;1.13;;;;;;;;;;5043079;28;20225;-72
2022/05/29 15:15:14;;;;;;;1.43;1.03;;;;;;;;;;5042629;28;20204;-72
2022/05/29 15:17:40;;;;;;;1.50;1.10;;;;;;;;;;5045633;28;20303;-72
2022/05/29 15:25:44;;;;;;;2.60;1.57;;;;;;;;;;5044483;28;20188;-72
2022/05/29 15:28:11;;;;;;;1.60;1.20;;;;;;;;;;5049423;28;20181;-73
2022/05/29 15:30:40;;;;;;;1.60;1.10;;;;;;;;;;5048258;28;20189;-72
2022/05/29 15:33:10;;;;;;;1.20;1.10;;;;;;;;;;5044862;28;20207;-72
2022/05/29 15:35:48;;;;;;;3.10;1.30;;;;;;;;;;5048669;28;20235;-72
2022/05/29 15:38:18;;;;;;;2.00;1.10;;;;;;;;;;5044826;28;20190;-73
2022/05/29 15:40:44;;;;;;;1.23;1.00;;;;;;;;;;5043710;28;20182;-72
2022/05/29 15:43:19;;;;;;;1.90;1.10;;;;;;;;;;5040878;28;20424;-73
2022/05/29 15:46:13;;;;;;;3.20;1.20;;;;;;;;;;5041870;28;20599;-73
2022/05/29 15:48:40;;;;;;;2.27;1.37;;;;;;;;;;5044824;28;20809;-73
2022/05/29 15:51:09;;;;;;;3.30;1.40;;;;;;;;;;5047810;28;20563;-73
2022/05/29 15:53:38;;;;;;;1.43;1.20;;;;;;;;;;5045703;28;20241;-72
2022/05/29 15:56:20;;;;;;;2.20;1.10;;;;;;;;;;5042352;28;21643;-72